createdAt,value
2019-05-25T09:36:15.658Z,18.10
2019-05-25T09:38:44.053Z,18.30
2019-05-25T09:41:12.469Z,18.20
2019-05-25T09:43:40.873Z,18.50
2019-05-25T09:46:09.297Z,18.70
2019-05-25T09:48:38.452Z,18.80
2019-05-25T09:51:15.345Z,18.90
2019-05-25T09:53:37.495Z,18.90
2019-05-25T09:56:05.904Z,18.70
2019-05-25T09:58:34.297Z,18.50
2019-05-25T10:01:03.120Z,18.40
2019-05-25T10:03:31.621Z,18.30
2019-05-25T10:06:00.048Z,18.30
2019-05-25T10:08:28.514Z,18.30
2019-05-25T10:10:56.925Z,18.30
2019-05-25T10:13:25.325Z,18.30
2019-05-25T10:15:53.794Z,18.40
2019-05-25T10:18:22.197Z,18.40
2019-05-25T10:20:50.611Z,18.40
2019-05-25T10:23:19.014Z,18.50
2019-05-25T10:25:47.689Z,18.50
2019-05-25T10:28:16.153Z,18.50
2019-05-25T10:30:44.624Z,18.50
2019-05-25T10:33:13.346Z,18.40
2019-05-25T10:35:41.769Z,18.50
2019-05-25T10:38:10.173Z,18.40
2019-05-25T10:40:38.912Z,18.40
2019-05-25T10:43:07.305Z,18.60
2019-05-25T10:45:35.979Z,18.70
2019-05-25T10:48:04.869Z,18.80
2019-05-25T10:50:33.283Z,18.80
2019-05-25T10:53:01.687Z,18.80
2019-05-25T10:55:30.103Z,18.80
2019-05-25T10:57:58.669Z,18.60
2019-05-25T11:00:27.317Z,18.60
2019-05-25T11:02:55.733Z,18.60
2019-05-25T11:05:24.388Z,18.50
2019-05-25T11:07:53.073Z,18.50
2019-05-25T11:10:21.649Z,18.50
2019-05-25T11:12:50.354Z,18.60
2019-05-25T11:15:18.887Z,18.60
2019-05-25T11:17:47.288Z,18.50
2019-05-25T11:20:16.539Z,18.50
2019-05-25T11:22:44.939Z,18.50
2019-05-25T11:25:14.189Z,18.40
2019-05-25T11:27:42.589Z,18.40
2019-05-25T11:30:13.042Z,18.40
2019-05-25T11:32:41.522Z,18.30
2019-05-25T11:35:10.169Z,18.40
2019-05-25T11:37:38.970Z,18.40
2019-05-25T11:40:09.536Z,18.50
2019-05-25T11:42:37.993Z,18.60
2019-05-25T11:45:07.541Z,18.50
2019-05-25T11:47:35.971Z,18.40
2019-05-25T11:50:07.568Z,18.40
2019-05-25T11:52:35.982Z,18.40
2019-05-25T11:55:07.511Z,18.50
2019-05-25T11:57:35.905Z,18.50
2019-05-25T12:00:23.813Z,18.70
2019-05-25T12:02:39.681Z,18.60
2019-05-25T12:05:09.460Z,18.60
2019-05-25T12:07:37.866Z,18.60
2019-05-25T12:10:07.336Z,18.80
2019-05-25T12:12:36.069Z,19.00
2019-05-25T12:15:09.262Z,19.00
2019-05-25T12:17:37.720Z,18.90
2019-05-25T12:20:06.970Z,19.00
2019-05-25T12:22:35.665Z,19.00
2019-05-25T12:25:06.313Z,18.90
2019-05-25T12:27:35.070Z,18.90
2019-05-25T12:30:05.556Z,18.80
2019-05-25T12:32:33.951Z,18.80
2019-05-25T12:35:02.665Z,18.80
2019-05-25T12:37:31.354Z,18.70
2019-05-25T12:39:59.748Z,18.60
2019-05-25T12:42:28.162Z,18.70
2019-05-25T12:44:56.811Z,18.60
2019-05-25T12:47:25.218Z,18.70
2019-05-25T12:49:53.881Z,18.70
2019-05-25T12:52:22.292Z,18.60
2019-05-25T12:54:50.692Z,18.60
2019-05-25T12:57:19.283Z,18.60
2019-05-25T12:59:47.922Z,18.60
2019-05-25T13:02:16.618Z,18.60
2019-05-25T13:04:45.013Z,18.70
2019-05-25T13:07:13.692Z,18.80
2019-05-25T13:09:42.377Z,18.90
2019-05-25T13:12:11.062Z,19.10
2019-05-25T13:14:39.456Z,19.20
2019-05-25T13:17:07.869Z,19.40
2019-05-25T13:19:36.518Z,19.50
2019-05-25T13:22:04.962Z,19.50
2019-05-25T13:24:33.696Z,19.50
2019-05-25T13:27:02.112Z,19.80
2019-05-25T13:29:30.509Z,19.90
2019-05-25T13:31:58.917Z,20.10
2019-05-25T13:34:27.321Z,20.20
2019-05-25T13:36:56.018Z,20.40
2019-05-25T13:39:24.703Z,20.40
2019-05-25T13:41:53.109Z,20.30
2019-05-25T13:44:21.775Z,20.50
2019-05-25T13:46:50.681Z,20.50
2019-05-25T13:49:19.085Z,20.40
2019-05-25T13:51:47.498Z,20.30
2019-05-25T13:54:16.238Z,20.10
2019-05-25T13:56:44.644Z,20.10
2019-05-25T13:59:13.212Z,20.10
2019-05-25T14:01:41.691Z,20.10
2019-05-25T14:04:10.090Z,20.20
2019-05-25T14:06:38.495Z,20.10
2019-05-25T14:09:07.059Z,20.00
2019-05-25T14:11:35.541Z,19.80
2019-05-25T14:14:04.209Z,19.70
2019-05-25T14:16:32.633Z,19.60
2019-05-25T14:19:01.033Z,19.50
2019-05-25T14:21:29.512Z,19.60
2019-05-25T14:23:57.912Z,19.50
2019-05-25T14:26:26.334Z,19.60
2019-05-25T14:28:54.730Z,19.60
2019-05-25T14:31:23.155Z,19.60
2019-05-25T14:33:51.901Z,19.50
2019-05-25T14:36:20.310Z,19.50
2019-05-25T14:38:48.716Z,19.40
2019-05-25T14:41:17.450Z,19.50
2019-05-25T14:43:46.125Z,19.50
2019-05-25T14:46:26.825Z,19.50
2019-05-25T14:48:44.937Z,19.60
2019-05-25T14:51:13.349Z,19.60
2019-05-25T14:53:42.011Z,19.60
2019-05-25T14:56:10.426Z,19.70
2019-05-25T14:58:39.157Z,19.60
2019-05-25T15:01:07.995Z,19.60
2019-05-25T15:03:36.764Z,19.60
2019-05-25T15:06:05.177Z,19.50
2019-05-25T15:08:33.578Z,19.60
2019-05-25T15:11:02.337Z,19.50
2019-05-25T15:13:30.755Z,19.50
2019-05-25T15:15:59.155Z,19.40
2019-05-25T15:18:27.642Z,19.40
2019-05-25T15:20:56.054Z,19.50
2019-05-25T15:23:24.453Z,19.50
2019-05-25T15:25:52.848Z,19.50
2019-05-25T15:28:21.262Z,19.50
2019-05-25T15:30:49.656Z,19.60
2019-05-25T15:33:18.379Z,19.70
2019-05-25T15:35:46.781Z,19.70
2019-05-25T15:38:15.468Z,19.70
2019-05-25T15:40:43.862Z,19.70
2019-05-25T15:43:12.626Z,19.70
2019-05-25T15:45:41.030Z,19.70
2019-05-25T15:48:09.517Z,19.70
2019-05-25T15:50:38.187Z,19.70
2019-05-25T15:53:06.705Z,19.70
2019-05-25T15:55:35.140Z,19.60
2019-05-25T15:58:03.630Z,19.60
2019-05-25T16:00:50.062Z,19.60
2019-05-25T16:03:20.004Z,19.50
2019-05-25T16:05:48.925Z,19.50
2019-05-25T16:08:18.985Z,19.50
2019-05-25T16:10:53.730Z,19.60
2019-05-25T16:13:22.140Z,19.60
2019-05-25T16:15:50.546Z,19.60
2019-05-25T16:18:18.950Z,19.60
2019-05-25T16:20:47.352Z,19.60
2019-05-25T16:23:15.773Z,19.70
2019-05-25T16:25:44.498Z,19.70
2019-05-25T16:28:12.938Z,19.70
2019-05-25T16:30:41.337Z,19.70
2019-05-25T16:33:12.856Z,19.50
2019-05-25T16:35:40.708Z,19.60
2019-05-25T16:38:09.245Z,19.50
2019-05-25T16:40:38.361Z,19.50
2019-05-25T16:43:06.768Z,19.40
2019-05-25T16:45:35.173Z,19.40
2019-05-25T16:48:03.953Z,19.40
2019-05-25T16:50:32.618Z,19.30
2019-05-25T16:53:01.209Z,19.30
2019-05-25T16:55:29.609Z,19.30
2019-05-25T16:57:58.096Z,19.30
2019-05-25T17:00:28.222Z,19.40
2019-05-25T17:02:58.825Z,19.40
2019-05-25T17:05:27.939Z,19.30
2019-05-25T17:07:56.954Z,19.30
2019-05-25T17:10:25.425Z,19.30
2019-05-25T17:12:53.833Z,19.30
2019-05-25T17:15:22.481Z,19.30
2019-05-25T17:17:50.992Z,19.40
2019-05-25T17:20:19.924Z,19.30
2019-05-25T17:22:48.654Z,19.30
2019-05-25T17:25:17.190Z,19.30
2019-05-25T17:27:45.605Z,19.20
2019-05-25T17:30:15.063Z,19.20
2019-05-25T17:32:43.721Z,19.20
2019-05-25T17:35:13.573Z,19.20
2019-05-25T17:37:41.983Z,19.20
2019-05-25T17:40:10.566Z,19.10
2019-05-25T17:42:39.081Z,19.20
2019-05-25T17:45:07.815Z,19.20
2019-05-25T17:47:36.296Z,19.10
2019-05-25T17:50:06.368Z,19.10
2019-05-25T17:52:34.837Z,19.10
2019-05-25T17:55:04.703Z,19.10
2019-05-25T17:57:33.495Z,19.00
2019-05-25T18:00:01.906Z,19.00
2019-05-25T18:02:30.651Z,19.00
2019-05-25T18:04:59.064Z,19.00
2019-05-25T18:07:27.829Z,18.90
2019-05-25T18:09:56.228Z,18.90
2019-05-25T18:12:24.645Z,18.90
2019-05-25T18:14:53.055Z,18.90
2019-05-25T18:17:21.458Z,18.90
2019-05-25T18:19:49.869Z,18.90
2019-05-25T18:22:18.630Z,18.80
2019-05-25T18:24:47.024Z,18.80
2019-05-25T18:27:15.445Z,18.80
2019-05-25T18:29:43.871Z,18.70
2019-05-25T18:32:12.360Z,18.70
2019-05-25T18:34:40.775Z,18.60
2019-05-25T18:37:09.161Z,18.60
2019-05-25T18:39:37.564Z,18.60
2019-05-25T18:42:06.707Z,18.50
2019-05-25T18:44:35.121Z,18.30
2019-05-25T18:47:03.524Z,18.30
2019-05-25T18:49:31.933Z,18.20
2019-05-25T18:52:00.683Z,18.10
2019-05-25T18:54:29.089Z,18.00
2019-05-25T18:56:57.489Z,17.80
2019-05-25T18:59:26.213Z,17.70
2019-05-25T19:01:54.647Z,17.60
2019-05-25T19:04:42.287Z,17.50
2019-05-25T19:06:53.231Z,17.50
2019-05-25T19:09:21.639Z,17.30
2019-05-25T19:11:50.386Z,17.30
2019-05-25T19:14:19.189Z,17.20
2019-05-25T19:16:47.585Z,17.10
2019-05-25T19:19:15.995Z,17.00
2019-05-25T19:21:44.405Z,17.00
2019-05-25T19:24:13.109Z,16.90
2019-05-25T19:26:41.830Z,16.90
2019-05-25T19:29:10.609Z,16.90
2019-05-25T19:31:39.402Z,16.80
2019-05-25T19:34:08.077Z,16.70
2019-05-25T19:36:36.865Z,16.60
2019-05-25T19:39:07.854Z,16.50
2019-05-25T19:41:36.253Z,16.50
2019-05-25T19:44:04.904Z,16.50
2019-05-25T19:46:33.307Z,16.50
2019-05-25T19:49:01.773Z,16.50
2019-05-25T19:51:30.185Z,16.50
2019-05-25T19:53:58.597Z,16.50
2019-05-25T19:56:26.998Z,16.40
2019-05-25T19:58:55.680Z,16.30
2019-05-25T20:01:24.391Z,16.20
2019-05-25T20:03:57.000Z,16.10
2019-05-25T20:06:23.315Z,16.10
2019-05-25T20:08:51.969Z,15.90
2019-05-25T20:11:20.661Z,15.80
2019-05-25T20:13:49.081Z,15.80
2019-05-25T20:16:17.497Z,15.80
2019-05-25T20:18:45.922Z,15.70
2019-05-25T20:21:14.350Z,15.60
2019-05-25T20:23:42.768Z,15.70
2019-05-25T20:26:11.161Z,15.70
2019-05-25T20:28:39.585Z,15.60
2019-05-25T20:31:08.095Z,15.60
2019-05-25T20:33:36.777Z,15.50
2019-05-25T20:36:24.846Z,15.30
2019-05-25T20:38:53.269Z,15.20
2019-05-25T20:41:21.664Z,15.30
2019-05-25T20:43:50.121Z,15.20
2019-05-25T20:46:18.549Z,15.10
2019-05-25T20:49:06.306Z,15.00
2019-05-25T20:51:34.716Z,15.00
2019-05-25T20:54:03.130Z,15.00
2019-05-25T20:56:31.565Z,15.10
2019-05-25T20:58:59.992Z,15.10
2019-05-25T21:01:28.397Z,15.10
2019-05-25T21:03:56.812Z,15.00
2019-05-25T21:06:25.493Z,15.00
2019-05-25T21:08:53.904Z,15.00
2019-05-25T21:11:22.312Z,14.90
2019-05-25T21:13:50.746Z,14.80
2019-05-25T21:16:19.438Z,14.90
2019-05-25T21:18:47.862Z,14.80
2019-05-25T21:21:16.257Z,14.80
2019-05-25T21:23:44.666Z,14.70
2019-05-25T21:26:13.069Z,14.70
2019-05-25T21:28:41.484Z,14.50
2019-05-25T21:31:09.882Z,14.40
2019-05-25T21:33:38.292Z,14.50
2019-05-25T21:36:08.855Z,14.50
2019-05-25T21:38:36.840Z,14.50
2019-05-25T21:41:05.245Z,14.40
2019-05-25T21:43:34.208Z,14.50
2019-05-25T21:46:02.617Z,14.40
2019-05-25T21:48:31.285Z,14.40
2019-05-25T21:50:59.703Z,14.30
2019-05-25T21:53:28.176Z,14.30
2019-05-25T21:55:56.593Z,14.10
2019-05-25T21:58:24.993Z,14.00
2019-05-25T22:00:53.805Z,13.90
2019-05-25T22:03:22.485Z,13.90
2019-05-25T22:05:51.191Z,13.90
2019-05-25T22:08:19.869Z,13.90
2019-05-25T22:10:48.281Z,13.80
2019-05-25T22:13:28.081Z,13.70
2019-05-25T22:15:46.816Z,13.60
2019-05-25T22:18:15.228Z,13.60
2019-05-25T22:20:43.934Z,13.60
2019-05-25T22:23:12.338Z,13.60
2019-05-25T22:25:41.102Z,13.70
2019-05-25T22:28:09.524Z,13.70
2019-05-25T22:30:38.277Z,13.80
2019-05-25T22:33:06.680Z,13.90
2019-05-25T22:35:35.097Z,13.90
2019-05-25T22:38:03.849Z,13.90
2019-05-25T22:40:32.539Z,13.80
2019-05-25T22:43:01.217Z,13.80
2019-05-25T22:45:29.635Z,13.90
2019-05-25T22:47:58.046Z,14.00
2019-05-25T22:50:26.457Z,13.90
2019-05-25T22:52:54.865Z,13.70
2019-05-25T22:55:23.546Z,13.80
2019-05-25T22:57:52.245Z,13.70
2019-05-25T23:00:20.892Z,13.60
2019-05-25T23:02:49.541Z,13.60
2019-05-25T23:05:18.290Z,13.40
2019-05-25T23:07:46.986Z,13.30
2019-05-25T23:10:16.017Z,13.30
2019-05-25T23:12:44.420Z,13.40
2019-05-25T23:15:13.417Z,13.50
2019-05-25T23:17:41.818Z,13.40
2019-05-25T23:20:10.869Z,13.40
2019-05-25T23:22:39.336Z,13.30
2019-05-25T23:25:08.910Z,13.20
2019-05-25T23:27:37.639Z,13.10
2019-05-25T23:30:07.589Z,13.00
2019-05-25T23:32:36.005Z,12.90
2019-05-25T23:35:05.357Z,12.90
2019-05-25T23:37:33.900Z,12.80
2019-05-25T23:40:02.317Z,12.70
2019-05-25T23:42:30.721Z,12.90
2019-05-25T23:44:59.128Z,12.90
2019-05-25T23:47:27.542Z,12.80
2019-05-25T23:49:59.523Z,12.80
2019-05-25T23:52:26.148Z,12.90
2019-05-25T23:54:54.690Z,13.00
2019-05-25T23:57:23.545Z,12.90
2019-05-25T23:59:51.964Z,12.70
